首页
METAR-TAF:

METAR-TAF

机场 :

戴维斯-蒙森空军基地

图森, 亞利桑那州, 美国

纬度: 32-10N, 经度: 110-53W, 海拔: 824米

当前天气观测

该预报发布于17分钟前的18:58 UTC
静风
温度 20°C
湿度 46%
气压 1022 hPa
能見度: 16.1公里
天空无云

METAR: KDMA 071858Z AUTO 00000KT 10SM CLR 20/08 A3017 RMK AO2 SLP193 T01950082 $

时间: 12:15 (19:15 UTC)

预报

该预报发布于5小时和10分钟前的14:05 UTC
预报有效从07日的 14点(UTC)到 08日的 20点(UTC)
风速6节,风向多变
能见度10公里或以上
少量云层高于18000英尺
散云层高于22000英尺
成为
从 07日的 21点(UTC)到 07日的 22点(UTC)
风速6节,风向西转西北
能见度10公里或以上
多云层高于12000英尺
成为
从 08日的 05点(UTC)到 08日的 06点(UTC)
风速6节,风向
能见度10公里或以上
多云层高于8000英尺
成为
从 08日的 10点(UTC)到 08日的 11点(UTC)
风速6节,风向南转南东
能见度10公里或以上
多云层高于8000英尺
短暂存在
从 08日的 11点(UTC)到 08日的 16点(UTC)
能見度: 8000
小阵雨

TAF: KDMA 071405Z 0714/0820 VRB06KT 9999 FEW180 SCT220 QNH3000INS BECMG 0721/0722 30006KT 9999 BKN120 621206 QNH3008INS BECMG 0805/0806 17006KT 9999 BKN080 620909 QNH3007INS BECMG 0810/0811 15006KT 9999 BKN080 610909 QNH3007INS TEMPO 0811/0816 8000 -SHRA TX22/0721Z TN13/0809Z

超过4000个机场的气象观测和天气预报(METAR&TAF报告)。

可查询的气象台以黄色和红色小点在地图上表示。

将鼠标移到小点上方,可查看气象台名称。

然后点击查看天气观测和预报。

如需切换地图:点击带黑十字的绿色按钮放大地图;点击带横线的绿色按钮缩小地图;或者点击绿色箭头查看邻近地区的地图。


METAR-TAF: